Time;durP1;ratioP1;P1;durP2;ratioP2;P2;SDS_P1;SDS_P2;PMS_P1;PMS_P2;Temp;Humidity;BMP_temperature;BMP_pressure;BME280_temperature;BME280_humidity;BME280_pressure;Samples;Min_cycle;Max_cycle;Signal;HPM_P1;HPM_P2
2022/12/24 07:57:24;;;;;;;11.45;6.07;;;15.30;74.00;;;;;;6835227;24;20065;-81
2022/12/24 08:00:25;;;;;;;14.25;7.18;;;15.30;73.80;;;;;;5998908;29;20065;-83
2022/12/24 08:03:27;;;;;;;15.93;7.45;;;15.30;74.00;;;;;;6004942;29;20392;-85
2022/12/24 08:06:29;;;;;;;12.32;6.53;;;15.30;74.10;;;;;;6005135;29;20042;-82
2022/12/24 08:09:38;;;;;;;12.23;6.55;;;15.30;74.10;;;;;;6004891;29;20038;-78
2022/12/24 08:12:40;;;;;;;12.18;6.72;;;15.40;74.10;;;;;;5997800;29;20060;-83
2022/12/24 08:15:42;;;;;;;10.13;5.70;;;15.30;74.00;;;;;;6004350;29;20038;-86
2022/12/24 08:18:43;;;;;;;14.23;6.20;;;15.40;74.20;;;;;;6006365;29;20038;-79
2022/12/24 08:21:44;;;;;;;13.05;6.57;;;15.40;74.20;;;;;;5991433;29;20470;-81
2022/12/24 08:24:45;;;;;;;13.02;6.60;;;15.50;74.20;;;;;;6011874;29;20390;-82
2022/12/24 08:27:46;;;;;;;11.55;5.80;;;15.60;74.20;;;;;;6008529;29;20049;-82
2022/12/24 08:30:48;;;;;;;9.95;5.50;;;15.70;74.00;;;;;;6007164;29;20198;-82
2022/12/24 08:33:49;;;;;;;9.52;5.45;;;15.80;73.80;;;;;;6008608;29;20585;-84
2022/12/24 08:36:50;;;;;;;19.92;9.50;;;15.80;73.60;;;;;;6006284;29;20030;-81
2022/12/24 08:39:53;;;;;;;12.65;6.82;;;15.90;73.60;;;;;;6007410;29;20041;-85
2022/12/24 08:42:54;;;;;;;14.88;7.10;;;15.90;73.60;;;;;;6008974;29;20045;-85
2022/12/24 08:46:04;;;;;;;14.70;6.75;;;16.00;73.30;;;;;;6008865;29;20099;-84
2022/12/24 08:49:05;;;;;;;14.52;6.88;;;16.00;72.90;;;;;;6004024;29;20031;-83
2022/12/24 08:52:06;;;;;;;13.73;7.60;;;16.00;72.70;;;;;;6008599;29;20046;-85
2022/12/24 08:55:08;;;;;;;15.65;7.90;;;16.00;72.70;;;;;;6006473;29;20084;-85
2022/12/24 08:58:09;;;;;;;11.50;6.13;;;16.00;72.50;;;;;;6002507;29;20061;-84
2022/12/24 09:01:13;;;;;;;14.25;7.25;;;16.00;73.20;;;;;;5990513;29;20058;-85
2022/12/24 09:04:14;;;;;;;15.70;8.18;;;16.00;72.40;;;;;;6007455;29;20155;-85
2022/12/24 09:07:14;;;;;;;21.17;9.35;;;16.00;72.50;;;;;;6010225;29;20046;-83
2022/12/24 09:10:16;;;;;;;14.85;7.80;;;16.10;72.40;;;;;;6009759;29;20053;-85
2022/12/24 09:13:17;;;;;;;15.23;8.38;;;16.00;72.30;;;;;;6007344;29;20145;-84
2022/12/24 09:16:17;;;;;;;16.17;8.05;;;16.00;72.20;;;;;;6007903;29;20049;-84
2022/12/24 09:19:18;;;;;;;13.48;7.03;;;16.00;72.30;;;;;;5990401;29;20042;-76
2022/12/24 09:22:20;;;;;;;12.43;7.50;;;16.10;72.50;;;;;;6004891;29;20367;-79
2022/12/24 09:25:23;;;;;;;14.50;8.32;;;16.10;72.30;;;;;;6018959;29;20111;-80
2022/12/24 09:28:23;;;;;;;17.52;8.10;;;16.10;72.20;;;;;;6002947;29;20038;-79
2022/12/24 09:31:27;;;;;;;14.40;7.35;;;16.20;72.40;;;;;;5997664;29;20054;-78
2022/12/24 09:34:28;;;;;;;12.90;7.75;;;16.30;72.40;;;;;;5989324;29;20544;-78
2022/12/24 09:37:29;;;;;;;13.93;7.40;;;16.40;72.20;;;;;;6002761;29;20034;-79
2022/12/24 09:40:38;;;;;;;16.48;8.20;;;16.40;71.70;;;;;;6010253;29;20053;-76
2022/12/24 09:43:47;;;;;;;14.40;8.13;;;16.40;71.50;;;;;;6003429;29;20046;-78
2022/12/24 09:46:50;;;;;;;13.55;8.07;;;16.40;71.50;;;;;;6004556;29;20352;-76
2022/12/24 09:49:55;;;;;;;16.42;9.43;;;16.50;71.70;;;;;;6006429;29;20341;-78
2022/12/24 09:53:00;;;;;;;18.20;9.75;;;16.60;71.60;;;;;;6014008;29;20050;-85
2022/12/24 09:56:06;;;;;;;19.58;9.75;;;16.70;71.50;;;;;;5996414;29;20200;-80
2022/12/24 09:59:15;;;;;;;20.02;10.10;;;16.70;71.50;;;;;;6003695;29;20051;-78
2022/12/24 10:02:18;;;;;;;17.67;8.63;;;16.80;71.70;;;;;;6004333;29;20114;-79
2022/12/24 10:05:35;;;;;;;17.13;7.78;;;16.90;71.60;;;;;;6003829;29;20081;-78
2022/12/24 10:08:47;;;;;;;29.75;10.85;;;17.00;71.60;;;;;;6006372;29;20098;-77
2022/12/24 10:12:15;;;;;;;16.83;7.90;;;17.10;71.30;;;;;;5992603;29;20516;-78
2022/12/24 10:15:21;;;;;;;12.38;7.10;;;17.30;70.90;;;;;;6004474;29;20048;-78
2022/12/24 10:18:45;;;;;;;13.10;7.30;;;17.30;70.10;;;;;;6002923;29;20371;-77
2022/12/24 10:22:16;;;;;;;25.50;8.90;;;17.40;69.90;;;;;;6013135;29;20156;-77
2022/12/24 10:25:28;;;;;;;16.80;9.30;;;17.40;69.90;;;;;;6003812;29;20038;-78
2022/12/24 10:28:37;;;;;;;19.15;7.78;;;17.40;69.50;;;;;;6006494;29;20046;-77
2022/12/24 10:32:07;;;;;;;12.75;7.72;;;17.40;69.30;;;;;;6003301;29;20042;-78
2022/12/24 10:35:18;;;;;;;13.45;7.35;;;17.30;69.20;;;;;;5951958;29;20056;-79
2022/12/24 10:38:18;;;;;;;11.07;6.53;;;17.30;69.10;;;;;;5998542;29;20036;-78
2022/12/24 10:41:19;;;;;;;14.25;7.03;;;17.20;69.00;;;;;;5998347;29;20030;-79
2022/12/24 10:44:23;;;;;;;17.88;8.82;;;17.20;69.10;;;;;;5985015;29;20396;-78
2022/12/24 10:47:25;;;;;;;13.15;7.25;;;17.20;69.20;;;;;;5999581;29;20034;-77
2022/12/24 10:50:39;;;;;;;13.52;6.57;;;17.20;69.40;;;;;;6000977;29;20102;-81
2022/12/24 10:53:43;;;;;;;15.32;8.32;;;17.20;69.30;;;;;;6009626;29;20089;-78
2022/12/24 10:56:51;;;;;;;15.00;8.38;;;17.20;69.40;;;;;;6000631;29;20034;-76
2022/12/24 10:59:54;;;;;;;19.27;9.77;;;17.40;69.60;;;;;;5993196;29;20081;-76
2022/12/24 11:03:29;;;;;;;21.42;10.48;;;17.60;69.20;;;;;;5999449;29;20037;-77
2022/12/24 11:06:30;;;;;;;16.27;8.88;;;17.70;68.70;;;;;;5981802;29;20577;-77
2022/12/24 11:09:33;;;;;;;19.70;9.43;;;17.80;68.40;;;;;;5991975;29;20054;-79
2022/12/24 11:12:46;;;;;;;16.75;9.25;;;18.00;68.60;;;;;;5993231;29;20046;-78
2022/12/24 11:15:58;;;;;;;21.35;8.23;;;18.50;68.40;;;;;;6009241;29;20052;-77
2022/12/24 11:19:03;;;;;;;20.48;9.60;;;19.00;67.10;;;;;;5998310;29;20441;-77
2022/12/24 11:22:23;;;;;;;18.15;8.30;;;19.50;65.50;;;;;;6013977;29;20500;-79
2022/12/24 11:25:33;;;;;;;12.18;6.38;;;20.10;63.80;;;;;;6002812;29;20149;-78
2022/12/24 11:28:34;;;;;;;18.17;9.13;;;20.70;61.80;;;;;;5983957;29;20054;-78
2022/12/24 11:31:36;;;;;;;10.13;5.43;;;21.30;59.70;;;;;;5997429;29;20106;-78
2022/12/24 11:34:42;;;;;;;9.32;4.50;;;21.70;58.10;;;;;;5982644;29;20383;-78
2022/12/24 11:37:43;;;;;;;11.85;5.82;;;21.80;57.20;;;;;;5996240;29;20558;-82
2022/12/24 11:40:57;;;;;;;10.65;5.80;;;21.80;56.70;;;;;;6000242;29;20130;-78
2022/12/24 11:44:02;;;;;;;10.15;6.05;;;21.40;56.60;;;;;;5994596;29;20182;-78
2022/12/24 11:47:03;;;;;;;11.07;5.13;;;21.00;56.80;;;;;;5978857;29;20413;-77
2022/12/24 11:50:23;;;;;;;9.25;5.13;;;20.60;58.40;;;;;;6002002;29;20049;-80
2022/12/24 11:53:33;;;;;;;8.43;4.88;;;20.20;58.50;;;;;;5996853;29;20041;-78
2022/12/24 11:56:39;;;;;;;9.35;4.45;;;19.90;59.10;;;;;;6001068;29;20046;-78
2022/12/24 11:59:45;;;;;;;14.35;6.78;;;19.80;60.20;;;;;;5999425;29;20045;-80
2022/12/24 12:02:50;;;;;;;8.43;4.95;;;19.60;59.60;;;;;;6008777;29;20034;-80
2022/12/24 12:05:52;;;;;;;6.93;4.35;;;19.50;60.00;;;;;;5990927;29;20069;-80
2022/12/24 12:09:00;;;;;;;9.02;5.13;;;19.30;60.20;;;;;;6001585;29;20042;-79
2022/12/24 12:12:17;;;;;;;12.40;5.90;;;19.20;60.70;;;;;;6004518;29;20064;-78
2022/12/24 12:15:23;;;;;;;7.53;4.22;;;19.10;61.20;;;;;;6008668;29;20138;-80
2022/12/24 12:18:31;;;;;;;8.45;4.75;;;19.10;61.00;;;;;;6001215;29;20128;-79
2022/12/24 12:21:41;;;;;;;12.70;6.05;;;18.90;61.00;;;;;;6001461;29;20041;-79
2022/12/24 12:24:50;;;;;;;12.38;5.07;;;18.70;61.50;;;;;;6001731;29;20515;-79
2022/12/24 12:27:55;;;;;;;9.77;5.95;;;18.70;61.90;;;;;;5995287;29;20065;-78
2022/12/24 12:31:21;;;;;;;8.07;4.68;;;18.70;61.90;;;;;;5994977;29;20048;-79
2022/12/24 12:34:38;;;;;;;8.48;5.18;;;18.60;61.80;;;;;;5991113;29;20263;-79
2022/12/24 12:37:43;;;;;;;10.77;5.15;;;18.60;62.20;;;;;;6008383;29;20042;-79
2022/12/24 12:40:56;;;;;;;7.25;3.80;;;18.60;62.50;;;;;;6002143;29;20046;-84
2022/12/24 12:44:09;;;;;;;6.70;3.95;;;18.70;62.70;;;;;;6012448;29;20081;-81
2022/12/24 12:47:48;;;;;;;6.60;4.03;;;18.70;62.50;;;;;;6002852;29;20139;-78
2022/12/24 12:51:02;;;;;;;3.80;2.08;;;18.70;62.50;;;;;;5985933;29;20034;-78
2022/12/24 12:54:25;;;;;;;4.95;3.20;;;18.80;61.80;;;;;;5997324;29;20133;-84
2022/12/24 12:57:31;;;;;;;3.42;2.13;;;18.70;61.50;;;;;;5994585;29;20154;-82
2022/12/24 13:00:37;;;;;;;3.70;2.08;;;18.70;61.50;;;;;;6001850;29;20058;-79
2022/12/24 13:04:16;;;;;;;8.98;2.30;;;18.70;61.30;;;;;;6014475;29;20050;-80
2022/12/24 13:07:17;;;;;;;6.38;2.63;;;18.70;61.30;;;;;;5997844;29;20038;-80
2022/12/24 13:10:59;;;;;;;8.10;3.65;;;18.60;61.10;;;;;;5998888;29;20038;-78
2022/12/24 13:14:25;;;;;;;3.45;2.00;;;18.60;61.20;;;;;;5949186;29;20508;-81
2022/12/24 13:18:19;;;;;;;4.90;2.67;;;18.70;61.00;;;;;;5958718;29;20039;-81
2022/12/24 13:21:26;;;;;;;5.63;2.42;;;18.70;61.30;;;;;;5849048;30;20046;-80
2022/12/24 13:24:30;;;;;;;7.40;2.90;;;18.80;61.00;;;;;;5847591;30;20041;-78
2022/12/24 13:27:33;;;;;;;3.92;2.47;;;18.80;60.80;;;;;;5847666;30;20136;-80
2022/12/24 13:30:37;;;;;;;4.50;2.60;;;18.90;60.70;;;;;;5848461;30;20045;-79
2022/12/24 13:33:38;;;;;;;10.48;3.08;;;19.00;60.80;;;;;;5850375;30;20052;-79
2022/12/24 13:37:05;;;;;;;6.22;2.70;;;19.10;60.80;;;;;;5848840;30;20112;-80
2022/12/24 13:40:08;;;;;;;14.70;7.45;;;19.10;60.70;;;;;;5847671;30;20057;-79
2022/12/24 13:43:11;;;;;;;9.18;4.32;;;19.10;60.40;;;;;;5850468;30;20041;-79
2022/12/24 13:47:02;;;;;;;4.68;3.15;;;19.10;60.30;;;;;;5851157;30;20072;-79
2022/12/24 13:50:21;;;;;;;6.88;2.75;;;19.10;60.30;;;;;;5878983;30;20121;-80
2022/12/24 13:53:30;;;;;;;11.60;3.17;;;19.00;60.20;;;;;;5895607;29;20079;-79
2022/12/24 13:56:35;;;;;;;5.70;2.90;;;19.00;60.40;;;;;;5961828;29;20043;-79
2022/12/24 13:59:38;;;;;;;10.10;3.35;;;19.00;60.40;;;;;;5946453;29;20108;-82
2022/12/24 14:02:50;;;;;;;7.50;3.50;;;19.10;60.50;;;;;;5943088;29;20135;-80
2022/12/24 14:06:07;;;;;;;11.35;3.13;;;19.00;60.60;;;;;;5959927;29;20692;-79
2022/12/24 14:09:14;;;;;;;11.52;4.22;;;19.00;60.70;;;;;;5927911;29;20043;-80
2022/12/24 14:12:32;;;;;;;5.97;3.47;;;19.00;60.70;;;;;;5959791;29;20062;-79
2022/12/24 14:15:48;;;;;;;7.93;3.00;;;18.90;60.70;;;;;;5935157;29;20043;-79
2022/12/24 14:19:01;;;;;;;5.88;2.92;;;19.00;61.50;;;;;;5955785;29;20508;-81
2022/12/24 14:22:11;;;;;;;8.82;3.05;;;18.90;60.80;;;;;;5942229;29;20039;-81
2022/12/24 14:25:22;;;;;;;6.72;2.92;;;18.90;60.90;;;;;;5966231;29;20070;-79
2022/12/24 14:28:31;;;;;;;7.20;2.30;;;18.90;61.00;;;;;;6001628;29;20042;-80
2022/12/24 14:31:33;;;;;;;5.10;2.72;;;18.90;61.00;;;;;;5999366;29;20044;-79
2022/12/24 14:34:34;;;;;;;6.72;3.65;;;18.90;60.80;;;;;;6000035;29;20038;-81
2022/12/24 14:37:35;;;;;;;4.38;2.40;;;18.90;60.90;;;;;;6003962;29;20424;-79
2022/12/24 14:41:00;;;;;;;6.35;2.92;;;18.90;61.00;;;;;;6005065;29;20039;-81
2022/12/24 14:44:27;;;;;;;8.52;2.80;;;18.80;60.80;;;;;;6003542;29;20038;-80
2022/12/24 14:47:49;;;;;;;9.38;4.30;;;18.80;60.80;;;;;;6011625;29;20026;-82
2022/12/24 14:51:04;;;;;;;15.65;5.65;;;18.70;61.10;;;;;;6009675;29;20034;-81
2022/12/24 14:54:24;;;;;;;8.38;3.97;;;18.70;61.10;;;;;;6005778;29;20374;-83
2022/12/24 14:57:26;;;;;;;13.40;4.80;;;18.70;61.10;;;;;;6002157;29;20042;-82
2022/12/24 15:00:27;;;;;;;7.57;3.67;;;18.70;61.30;;;;;;6001356;29;20109;-83
2022/12/24 15:03:30;;;;;;;12.90;3.70;;;18.60;61.40;;;;;;6003549;29;20038;-85
2022/12/24 15:06:34;;;;;;;5.65;3.25;;;18.60;61.40;;;;;;6007387;29;20061;-86
2022/12/24 15:09:38;;;;;;;7.10;3.08;;;18.60;61.60;;;;;;6006046;29;20053;-81
2022/12/24 15:12:40;;;;;;;9.55;3.63;;;18.50;61.70;;;;;;6006921;29;20076;-81
2022/12/24 15:15:44;;;;;;;10.80;4.10;;;18.50;62.00;;;;;;6003527;29;20069;-79
2022/12/24 15:18:56;;;;;;;6.75;3.55;;;18.40;62.10;;;;;;5998945;29;20048;-80
2022/12/24 15:21:58;;;;;;;8.02;4.45;;;18.30;62.20;;;;;;5998330;29;20109;-79
2022/12/24 15:24:58;;;;;;;12.93;4.22;;;18.30;62.30;;;;;;6003609;29;20187;-80
2022/12/24 15:28:00;;;;;;;18.58;6.85;;;18.30;62.30;;;;;;5979053;29;20038;-78
2022/12/24 15:31:13;;;;;;;11.30;4.72;;;18.30;62.50;;;;;;6000979;29;20759;-78
2022/12/24 15:34:27;;;;;;;6.82;2.60;;;18.30;62.60;;;;;;5981360;29;20137;-84
2022/12/24 15:37:36;;;;;;;6.03;3.45;;;18.20;62.70;;;;;;6018872;29;20026;-78
2022/12/24 15:40:37;;;;;;;6.25;3.30;;;18.20;62.60;;;;;;6003996;29;20097;-78
2022/12/24 15:43:39;;;;;;;6.25;3.28;;;18.10;62.50;;;;;;6006400;29;20046;-78
2022/12/24 15:46:40;;;;;;;7.25;3.80;;;18.10;62.50;;;;;;6006931;29;20036;-78
2022/12/24 15:49:45;;;;;;;6.38;3.72;;;18.00;62.50;;;;;;6007366;29;20193;-78
2022/12/24 15:52:47;;;;;;;6.20;3.35;;;18.00;62.60;;;;;;6002121;29;20052;-81
2022/12/24 15:56:04;;;;;;;6.22;3.17;;;18.00;62.70;;;;;;6003148;29;20081;-79
2022/12/24 15:59:20;;;;;;;14.95;5.95;;;17.90;62.90;;;;;;5999516;29;20064;-78
2022/12/24 16:02:34;;;;;;;11.52;5.35;;;17.90;63.00;;;;;;6004578;29;20083;-79
2022/12/24 16:05:37;;;;;;;9.00;3.90;;;17.80;63.30;;;;;;6003339;29;20050;-78
2022/12/24 16:08:42;;;;;;;10.20;5.07;;;17.80;63.60;;;;;;6003326;29;20073;-77
2022/12/24 16:11:43;;;;;;;9.85;3.50;;;17.70;63.90;;;;;;6005292;29;20068;-76
2022/12/24 16:14:56;;;;;;;6.63;3.75;;;17.60;64.10;;;;;;5990633;29;20076;-78
2022/12/24 16:17:57;;;;;;;12.20;5.35;;;17.60;64.40;;;;;;6002974;29;20052;-78
2022/12/24 16:20:58;;;;;;;6.40;3.67;;;17.50;64.50;;;;;;5982883;29;20120;-78
2022/12/24 16:24:13;;;;;;;10.88;4.97;;;17.50;64.70;;;;;;5994396;29;20042;-78
2022/12/24 16:27:14;;;;;;;11.35;5.35;;;17.40;64.90;;;;;;6003663;29;20045;-81
2022/12/24 16:30:16;;;;;;;7.90;5.03;;;17.40;65.10;;;;;;6033917;29;20038;-76
2022/12/24 16:33:19;;;;;;;16.73;7.18;;;17.30;65.30;;;;;;6012667;29;20057;-76
2022/12/24 16:36:20;;;;;;;16.95;7.72;;;17.30;65.60;;;;;;5999477;29;20497;-77
2022/12/24 16:39:29;;;;;;;14.35;4.82;;;17.30;65.70;;;;;;5983669;29;20042;-76
2022/12/24 16:45:50;;;;;;;10.07;4.40;;;17.20;65.90;;;;;;6002120;29;20049;-77
2022/12/24 16:48:51;;;;;;;11.52;4.55;;;17.10;66.00;;;;;;6001195;29;20080;-79
2022/12/24 16:51:52;;;;;;;25.65;12.20;;;17.10;66.20;;;;;;6008439;29;20439;-81
2022/12/24 16:54:53;;;;;;;10.38;4.93;;;17.10;66.30;;;;;;6002772;29;20053;-79
2022/12/24 16:57:54;;;;;;;7.75;4.45;;;17.00;66.30;;;;;;6002484;29;20065;-78
2022/12/24 17:00:55;;;;;;;10.73;5.70;;;17.00;66.40;;;;;;5999813;29;20128;-79
2022/12/24 17:03:56;;;;;;;12.32;5.60;;;17.00;66.50;;;;;;6003300;29;20038;-81
2022/12/24 17:06:57;;;;;;;13.95;6.63;;;16.90;66.50;;;;;;6004131;29;20439;-80
2022/12/24 17:09:59;;;;;;;12.73;6.28;;;16.90;66.60;;;;;;6006340;29;20506;-80
2022/12/24 17:13:01;;;;;;;11.98;5.55;;;16.90;66.50;;;;;;5998470;29;20436;-80
2022/12/24 17:16:02;;;;;;;14.85;6.85;;;16.90;66.50;;;;;;5986352;29;20050;-80
2022/12/24 17:19:04;;;;;;;26.33;8.40;;;16.80;66.50;;;;;;6003134;29;20518;-82
2022/12/24 17:22:05;;;;;;;25.42;10.88;;;16.80;66.60;;;;;;6007364;29;20042;-80
2022/12/24 17:25:08;;;;;;;15.15;7.25;;;16.80;66.70;;;;;;6003477;29;20113;-79
2022/12/24 17:28:09;;;;;;;13.65;7.28;;;16.80;66.80;;;;;;6003760;29;20117;-78
2022/12/24 17:31:17;;;;;;;13.52;6.90;;;16.70;67.60;;;;;;6006499;29;20041;-77
2022/12/24 17:34:18;;;;;;;11.32;6.53;;;16.70;66.90;;;;;;6003326;29;20044;-78
2022/12/24 17:37:19;;;;;;;13.63;6.78;;;16.60;67.00;;;;;;5987377;29;20336;-82
2022/12/24 17:40:19;;;;;;;13.93;6.95;;;16.60;67.00;;;;;;6002492;29;20052;-79
2022/12/24 17:43:20;;;;;;;16.33;7.90;;;16.60;67.10;;;;;;5999207;29;20101;-87
2022/12/24 17:46:22;;;;;;;16.75;8.02;;;16.60;67.30;;;;;;6000633;29;20045;-80
2022/12/24 17:49:23;;;;;;;17.00;8.30;;;16.50;67.50;;;;;;6005556;29;20650;-77
2022/12/24 17:52:24;;;;;;;13.70;6.53;;;16.40;67.70;;;;;;5979381;29;20066;-79
2022/12/24 17:55:25;;;;;;;16.42;9.23;;;16.40;68.00;;;;;;6006586;29;20087;-79
2022/12/24 17:58:26;;;;;;;19.02;8.52;;;16.30;68.20;;;;;;6005216;29;20042;-79
2022/12/24 18:01:32;;;;;;;12.95;6.97;;;16.30;68.40;;;;;;6006415;29;20046;-81
2022/12/24 18:04:32;;;;;;;18.83;7.50;;;16.20;68.60;;;;;;6026281;29;20049;-80
2022/12/24 18:07:33;;;;;;;19.38;7.68;;;16.20;68.80;;;;;;6009337;29;20472;-78
2022/12/24 18:10:34;;;;;;;15.50;7.78;;;16.20;69.00;;;;;;5986738;29;20050;-80
2022/12/24 18:13:35;;;;;;;13.77;6.88;;;16.00;69.00;;;;;;6009121;29;20247;-78
2022/12/24 18:16:38;;;;;;;14.88;7.85;;;16.10;69.20;;;;;;6010062;29;20045;-79
2022/12/24 18:19:38;;;;;;;20.65;7.32;;;16.00;69.20;;;;;;6009601;29;20477;-78
2022/12/24 18:22:39;;;;;;;21.77;9.18;;;16.00;69.40;;;;;;5995037;29;20042;-80
2022/12/24 18:25:40;;;;;;;18.73;8.75;;;16.00;69.50;;;;;;6010912;29;20054;-76
2022/12/24 18:28:42;;;;;;;17.10;8.52;;;16.00;69.60;;;;;;6010624;29;20046;-77
2022/12/24 18:31:43;;;;;;;17.38;8.05;;;15.90;69.60;;;;;;6005709;29;20050;-77
2022/12/24 18:34:44;;;;;;;19.05;8.25;;;15.90;69.70;;;;;;6008615;29;20071;-79
2022/12/24 18:37:45;;;;;;;19.65;7.97;;;15.90;69.70;;;;;;6005513;29;20045;-79
2022/12/24 18:40:48;;;;;;;21.27;7.88;;;15.90;69.80;;;;;;6010205;29;20034;-78
2022/12/24 18:43:49;;;;;;;19.52;8.20;;;15.80;69.80;;;;;;6008452;29;20041;-80
2022/12/24 18:46:50;;;;;;;14.43;7.50;;;15.80;69.80;;;;;;6008598;29;20527;-83
2022/12/24 18:49:51;;;;;;;16.00;7.85;;;15.80;69.90;;;;;;6007124;29;20070;-80
2022/12/24 18:52:51;;;;;;;17.13;8.05;;;15.80;69.90;;;;;;6007967;29;20440;-77
2022/12/24 18:55:53;;;;;;;19.42;8.82;;;15.80;70.00;;;;;;6002922;29;20038;-75
2022/12/24 18:58:56;;;;;;;18.52;8.73;;;15.80;70.00;;;;;;5983510;29;20054;-76
2022/12/24 19:01:57;;;;;;;17.77;8.60;;;15.70;70.00;;;;;;6008774;29;20041;-76
2022/12/24 19:04:58;;;;;;;20.30;9.85;;;15.70;70.00;;;;;;5992198;29;20455;-76
2022/12/24 19:07:58;;;;;;;21.92;11.00;;;15.70;70.00;;;;;;6009649;29;20121;-75
2022/12/24 19:10:59;;;;;;;24.42;11.43;;;15.70;70.20;;;;;;6009806;29;20414;-75
2022/12/24 19:14:01;;;;;;;22.52;10.85;;;15.60;70.10;;;;;;6008166;29;20041;-75
2022/12/24 19:17:02;;;;;;;20.60;10.13;;;15.60;70.10;;;;;;6010221;29;20578;-75
2022/12/24 19:20:03;;;;;;;21.40;9.65;;;15.50;70.10;;;;;;6010052;29;20136;-75
2022/12/24 19:23:08;;;;;;;25.05;10.45;;;15.50;70.30;;;;;;6009145;29;20064;-76
2022/12/24 19:26:10;;;;;;;19.17;9.70;;;15.40;70.30;;;;;;6003407;29;20455;-76
2022/12/24 19:29:11;;;;;;;20.45;9.90;;;15.40;70.50;;;;;;5987790;29;20045;-75
2022/12/24 19:32:12;;;;;;;24.42;10.15;;;15.40;70.60;;;;;;6007860;29;20065;-76
2022/12/24 19:35:13;;;;;;;21.55;9.75;;;15.30;70.10;;;;;;6007436;29;20054;-75
2022/12/24 19:38:13;;;;;;;22.23;10.02;;;15.30;70.70;;;;;;6010018;29;20041;-78
2022/12/24 19:41:23;;;;;;;22.90;8.88;;;15.30;70.70;;;;;;6010281;29;20057;-76
2022/12/24 19:44:24;;;;;;;17.60;8.82;;;15.30;70.70;;;;;;6006446;29;20042;-77
2022/12/24 19:47:25;;;;;;;22.75;9.20;;;15.30;70.60;;;;;;6009317;29;20042;-77
2022/12/24 19:50:26;;;;;;;18.65;8.43;;;15.20;70.50;;;;;;6005699;29;20118;-77
2022/12/24 19:53:27;;;;;;;20.35;9.27;;;15.20;70.60;;;;;;6003452;29;20046;-78
2022/12/24 19:56:38;;;;;;;19.00;9.25;;;15.20;70.70;;;;;;6010215;29;20483;-76
2022/12/24 19:59:39;;;;;;;17.33;7.95;;;15.10;70.80;;;;;;6003783;29;20414;-76
2022/12/24 20:02:40;;;;;;;21.00;8.43;;;15.10;70.90;;;;;;6010097;29;20042;-78
2022/12/24 20:05:42;;;;;;;14.05;7.88;;;15.00;70.90;;;;;;6007191;29;20042;-77
2022/12/24 20:08:43;;;;;;;21.13;7.72;;;15.00;71.10;;;;;;6009176;29;20042;-78
2022/12/24 20:11:44;;;;;;;16.30;7.97;;;15.00;72.10;;;;;;6008340;29;20618;-78
2022/12/24 20:14:45;;;;;;;20.08;8.15;;;14.90;71.20;;;;;;6010144;29;20034;-77
2022/12/24 20:17:50;;;;;;;20.48;8.63;;;14.90;71.20;;;;;;6007739;29;20060;-82
2022/12/24 20:20:51;;;;;;;17.48;8.43;;;14.90;71.20;;;;;;6009739;29;20050;-77
2022/12/24 20:23:53;;;;;;;23.02;9.85;;;15.00;71.20;;;;;;6005554;29;20042;-78
2022/12/24 20:26:54;;;;;;;28.00;8.93;;;15.00;71.10;;;;;;6001107;29;20042;-76
2022/12/24 20:29:56;;;;;;;17.60;8.23;;;14.90;71.00;;;;;;6004894;29;20057;-73
2022/12/24 20:32:57;;;;;;;14.68;7.38;;;14.90;71.10;;;;;;6006224;29;20061;-74
2022/12/24 20:36:01;;;;;;;16.20;8.90;;;14.90;71.20;;;;;;6004539;29;20038;-75
2022/12/24 20:39:04;;;;;;;17.30;7.40;;;14.90;71.00;;;;;;6005801;29;20145;-80
2022/12/24 20:42:05;;;;;;;21.98;9.68;;;14.90;71.10;;;;;;6007168;29;20042;-75
2022/12/24 20:45:07;;;;;;;18.58;9.02;;;14.80;71.00;;;;;;6007964;29;20079;-75
2022/12/24 20:48:07;;;;;;;21.63;9.25;;;14.80;71.10;;;;;;6008152;29;20098;-76
2022/12/24 20:51:15;;;;;;;21.45;8.60;;;14.80;72.00;;;;;;6009464;29;20475;-77
2022/12/24 20:54:16;;;;;;;19.05;10.07;;;14.70;71.20;;;;;;6008600;29;20556;-77
2022/12/24 20:57:17;;;;;;;17.08;9.23;;;14.70;71.20;;;;;;6007183;29;20038;-75
2022/12/24 21:00:19;;;;;;;20.92;9.38;;;14.70;71.20;;;;;;6006972;29;20042;-78
2022/12/24 21:03:19;;;;;;;17.20;8.95;;;14.70;71.20;;;;;;6008527;29;20046;-76
2022/12/24 21:06:21;;;;;;;27.30;9.95;;;14.60;71.20;;;;;;6008801;29;20514;-78
2022/12/24 21:09:22;;;;;;;21.35;10.27;;;14.60;71.20;;;;;;6010214;29;20053;-77
2022/12/24 21:15:45;;;;;;;20.08;9.43;;;14.50;71.40;;;;;;6005338;29;20046;-79
2022/12/24 21:18:45;;;;;;;22.38;10.07;;;14.40;71.50;;;;;;6007868;29;20069;-77
2022/12/24 21:21:46;;;;;;;16.80;9.88;;;14.40;71.60;;;;;;5991650;29;20360;-75
2022/12/24 21:24:47;;;;;;;17.73;8.05;;;14.40;71.70;;;;;;6005188;29;20029;-77
2022/12/24 21:27:49;;;;;;;22.08;9.30;;;14.40;71.60;;;;;;6021418;29;20069;-79
2022/12/24 21:30:50;;;;;;;15.88;8.20;;;14.40;71.70;;;;;;5990222;29;20037;-78
2022/12/24 21:33:51;;;;;;;17.83;7.90;;;14.40;71.70;;;;;;6006942;29;20061;-80
2022/12/24 21:36:52;;;;;;;11.75;6.50;;;14.40;71.80;;;;;;6009918;29;20046;-77
2022/12/24 21:39:53;;;;;;;12.43;6.72;;;14.40;71.60;;;;;;6011331;29;20383;-77
2022/12/24 21:42:54;;;;;;;15.60;7.38;;;14.40;71.50;;;;;;6014251;29;20491;-74
2022/12/24 21:45:55;;;;;;;16.75;7.95;;;14.30;71.50;;;;;;6012395;29;20042;-74
2022/12/24 21:52:17;;;;;;;20.35;9.80;;;14.30;71.60;;;;;;6009510;29;20060;-74
2022/12/24 21:55:18;;;;;;;24.38;10.80;;;14.30;71.60;;;;;;5995461;29;20030;-74
2022/12/24 21:58:19;;;;;;;23.85;10.50;;;14.30;71.60;;;;;;6009358;29;20056;-75
2022/12/24 22:01:19;;;;;;;30.33;11.45;;;14.30;71.60;;;;;;6007910;29;20178;-75
2022/12/24 22:04:21;;;;;;;25.40;12.43;;;14.30;71.50;;;;;;6007290;29;20038;-74
2022/12/24 22:14:06;;;;;;;24.52;11.82;;;14.10;71.50;;;;;;6009022;29;20178;-76
2022/12/24 22:17:07;;;;;;;20.80;11.10;;;14.00;71.60;;;;;;5994965;29;20071;-74
2022/12/24 22:20:08;;;;;;;19.67;9.95;;;14.00;71.80;;;;;;6001037;29;20062;-74
2022/12/24 22:23:09;;;;;;;24.90;11.18;;;13.90;71.80;;;;;;6000081;29;20034;-74
2022/12/24 22:26:12;;;;;;;26.25;11.15;;;13.90;72.00;;;;;;5995025;29;20110;-75
2022/12/24 22:29:14;;;;;;;21.52;9.60;;;13.80;72.10;;;;;;6009904;29;20122;-76
2022/12/24 22:32:15;;;;;;;22.52;10.55;;;13.80;72.20;;;;;;5992450;29;20395;-75
2022/12/24 22:35:16;;;;;;;25.02;10.90;;;13.80;72.40;;;;;;6010592;29;20129;-75
2022/12/24 22:38:16;;;;;;;25.50;10.75;;;13.80;72.30;;;;;;5994621;29;20048;-75
2022/12/24 22:41:17;;;;;;;25.15;10.73;;;13.80;72.20;;;;;;6009969;29;20038;-74
2022/12/24 22:44:18;;;;;;;20.98;9.48;;;13.90;72.20;;;;;;6010095;29;20392;-74
2022/12/24 22:47:19;;;;;;;23.10;10.38;;;13.90;72.00;;;;;;5993803;29;20046;-74
2022/12/24 22:50:20;;;;;;;44.75;19.77;;;13.90;72.10;;;;;;5994509;29;20041;-74
2022/12/24 22:53:21;;;;;;;19.98;8.43;;;13.90;72.10;;;;;;6011084;29;20050;-75
2022/12/24 22:56:22;;;;;;;22.77;9.93;;;13.90;72.00;;;;;;6013253;29;20189;-74
2022/12/24 22:59:23;;;;;;;25.38;10.40;;;13.90;72.10;;;;;;5993240;29;20050;-74
2022/12/24 23:02:25;;;;;;;29.45;11.95;;;13.90;72.00;;;;;;6008454;29;20096;-75
2022/12/24 23:05:26;;;;;;;30.65;12.13;;;13.80;72.00;;;;;;6009671;29;20046;-75
2022/12/24 23:08:28;;;;;;;23.90;11.27;;;13.80;72.00;;;;;;6004789;29;20053;-74
2022/12/24 23:11:28;;;;;;;23.70;10.60;;;13.80;72.00;;;;;;6005637;29;20064;-74
2022/12/24 23:17:49;;;;;;;20.30;10.35;;;13.70;72.20;;;;;;6005724;29;20048;-74
2022/12/24 23:20:50;;;;;;;23.38;10.65;;;13.60;72.10;;;;;;6005843;29;20038;-74
2022/12/24 23:23:52;;;;;;;27.85;10.63;;;13.60;72.20;;;;;;6006855;29;20770;-74
2022/12/24 23:26:52;;;;;;;26.65;10.15;;;13.60;72.30;;;;;;6005790;29;20383;-74
2022/12/24 23:29:53;;;;;;;25.75;10.63;;;13.60;72.40;;;;;;6004237;29;20046;-73
2022/12/24 23:32:54;;;;;;;25.27;10.02;;;13.60;72.30;;;;;;6004352;29;20046;-74
2022/12/24 23:35:56;;;;;;;22.17;9.55;;;13.60;72.40;;;;;;6000964;29;20485;-74
2022/12/24 23:38:56;;;;;;;35.70;9.90;;;13.50;72.50;;;;;;6005656;29;20046;-76
2022/12/24 23:41:57;;;;;;;37.40;10.43;;;13.50;72.30;;;;;;5981346;29;20396;-74
2022/12/24 23:44:58;;;;;;;32.53;10.60;;;13.40;72.20;;;;;;6008484;29;20379;-75
2022/12/24 23:47:59;;;;;;;57.08;10.15;;;13.40;72.40;;;;;;6006907;29;20034;-75
2022/12/24 23:51:16;;;;;;;40.13;10.77;;;13.30;72.50;;;;;;6007022;29;20030;-75
2022/12/24 23:54:17;;;;;;;37.42;10.48;;;13.20;72.70;;;;;;6007464;29;20041;-75
2022/12/24 23:57:17;;;;;;;33.97;10.38;;;13.20;72.90;;;;;;6007010;29;20121;-75
